Check out our new BloomSky Weather System.

Active alerts


No alerts


Thunder radar  blitzortung!


Rain radar more information rain snow radar


Visit our other weather sites:

Template documentation
and downloads

And another site



Weather Underground History page Text

Daily Summary for October 21, 2017 Units:  English    Metric   Both
« Previous Day
Next Day »
Daily Weekly Monthly Yearly Custom
  High: Low: Average:
Temperature: 89.2 °F 71.4 °F 78.2 °F
Dew Point: 79.5 °F 71.1 °F 74.5 °F
Humidity: 100 % 65 % 89 %
Wind Speed: 11.0 mph 0.0 mph 2.3 mph
Wind Gust: 13.0 mph - -
Wind:- - SE
Pressure: 29.97 in 29.86 in -
Precipitation: 0.15 in    
Historical Graphs
 
 
Tabular Data for October 21, 2017
Time Temperature Dew Point Pressure Wind Wind Speed Wind Gust Humidity Rainfall Rate (Hourly)
00:02 73.6 °F 72.1 °F 29.95 in East 1.0 mph 2.0 mph 95 % 0.00 in
00:12 73.4 °F 72.1 °F 29.94 in SE 1.0 mph 2.0 mph 96 % 0.00 in
00:17 73.2 °F 72.0 °F 29.94 in SE 1.0 mph 3.0 mph 96 % 0.00 in
00:22 73.2 °F 72.0 °F 29.94 in East 1.0 mph 3.0 mph 96 % 0.00 in
00:27 73.2 °F 72.0 °F 29.94 in Calm   3.0 mph 96 % 0.00 in
00:32 73.2 °F 72.0 °F 29.94 in ENE 1.0 mph 3.0 mph 96 % 0.00 in
00:37 73.0 °F 71.8 °F 29.94 in Calm   3.0 mph 96 % 0.00 in
00:42 73.0 °F 71.8 °F 29.94 in Calm   3.0 mph 96 % 0.00 in
00:47 73.0 °F 71.8 °F 29.94 in Calm   3.0 mph 96 % 0.00 in
00:52 73.0 °F 72.1 °F 29.94 in Calm   3.0 mph 97 % 0.00 in
00:57 73.0 °F 72.1 °F 29.94 in ESE 1.0 mph 3.0 mph 97 % 0.00 in
01:02 73.0 °F 72.1 °F 29.94 in Calm   3.0 mph 97 % 0.00 in
01:07 73.0 °F 72.1 °F 29.94 in Calm   3.0 mph 97 % 0.00 in
01:12 73.0 °F 72.1 °F 29.93 in Calm   3.0 mph 97 % 0.00 in
01:17 72.9 °F 72.0 °F 29.93 in ESE 2.0 mph 3.0 mph 97 % 0.00 in
01:22 72.9 °F 72.0 °F 29.93 in ESE 2.0 mph 3.0 mph 97 % 0.00 in
01:27 72.9 °F 72.0 °F 29.92 in ESE 1.0 mph 4.0 mph 97 % 0.00 in
01:31 72.9 °F 72.0 °F 29.92 in NE 2.0 mph 4.0 mph 97 % 0.00 in
01:36 72.7 °F 71.8 °F 29.92 in Calm   4.0 mph 97 % 0.00 in
01:41 72.7 °F 71.8 °F 29.92 in SE 1.0 mph 4.0 mph 97 % 0.00 in
01:46 72.7 °F 71.8 °F 29.92 in Calm   4.0 mph 97 % 0.00 in
01:52 72.7 °F 71.8 °F 29.92 in East 1.0 mph 4.0 mph 97 % 0.00 in
01:57 72.5 °F 71.6 °F 29.92 in Calm   6.0 mph 97 % 0.00 in
01:59 72.5 °F 72.0 °F 29.92 in ESE 2.0 mph 6.0 mph 98 % 0.00 in
02:04 72.5 °F 72.0 °F 29.92 in ESE 1.0 mph 6.0 mph 98 % 0.00 in
02:09 72.5 °F 72.0 °F 29.92 in SE 2.0 mph 6.0 mph 98 % 0.00 in
02:14 72.5 °F 72.0 °F 29.92 in SSE 1.0 mph 5.0 mph 98 % 0.00 in
02:19 72.3 °F 71.8 °F 29.92 in ESE 3.0 mph 5.0 mph 98 % 0.00 in
02:24 72.5 °F 72.0 °F 29.92 in South 1.0 mph 5.0 mph 98 % 0.00 in
02:29 72.3 °F 71.8 °F 29.91 in Calm   4.0 mph 98 % 0.00 in
02:34 72.3 °F 71.8 °F 29.91 in ESE 2.0 mph 4.0 mph 98 % 0.00 in
02:39 72.3 °F 71.8 °F 29.91 in Calm   5.0 mph 98 % 0.00 in
02:44 72.3 °F 71.8 °F 29.91 in East 1.0 mph 5.0 mph 98 % 0.00 in
02:49 72.3 °F 71.8 °F 29.91 in Calm   5.0 mph 98 % 0.00 in
02:55 72.3 °F 71.8 °F 29.91 in SE 2.0 mph 4.0 mph 98 % 0.00 in
03:00 72.3 °F 71.8 °F 29.91 in Calm   4.0 mph 98 % 0.00 in
03:05 72.3 °F 71.8 °F 29.90 in SSE 2.0 mph 3.0 mph 98 % 0.00 in
03:10 72.3 °F 71.8 °F 29.91 in Calm   3.0 mph 98 % 0.00 in
03:15 72.3 °F 71.8 °F 29.91 in East 1.0 mph 4.0 mph 98 % 0.00 in
03:20 72.3 °F 71.8 °F 29.91 in East 1.0 mph 4.0 mph 98 % 0.00 in
03:25 72.3 °F 71.8 °F 29.90 in Calm   4.0 mph 98 % 0.00 in
03:30 72.3 °F 71.8 °F 29.90 in Calm   3.0 mph 98 % 0.00 in
03:35 72.3 °F 71.8 °F 29.90 in Calm   3.0 mph 98 % 0.00 in
03:40 72.3 °F 71.8 °F 29.90 in Calm   3.0 mph 98 % 0.00 in
03:45 72.5 °F 72.0 °F 29.91 in Calm   3.0 mph 98 % 0.00 in
03:50 72.5 °F 72.0 °F 29.90 in Calm   3.0 mph 98 % 0.00 in
03:55 72.5 °F 72.0 °F 29.90 in Calm   3.0 mph 98 % 0.00 in
04:00 72.3 °F 71.8 °F 29.90 in Calm   2.0 mph 98 % 0.00 in
04:05 72.3 °F 71.8 °F 29.90 in Calm   2.0 mph 98 % 0.00 in
04:10 72.3 °F 71.8 °F 29.90 in Calm   1.0 mph 98 % 0.00 in
04:15 72.3 °F 71.8 °F 29.90 in Calm   1.0 mph 98 % 0.00 in
04:20 72.1 °F 71.6 °F 29.90 in Calm   1.0 mph 98 % 0.00 in
04:25 72.0 °F 71.4 °F 29.90 in Calm   1.0 mph 98 % 0.00 in
04:30 72.0 °F 71.4 °F 29.90 in Calm   1.0 mph 98 % 0.00 in
04:35 72.0 °F 71.4 °F 29.90 in Calm   1.0 mph 98 % 0.00 in
04:40 72.0 °F 71.4 °F 29.90 in Calm   2.0 mph 98 % 0.00 in
04:45 72.0 °F 71.4 °F 29.90 in Calm   2.0 mph 98 % 0.00 in
04:50 71.8 °F 71.2 °F 29.90 in Calm   2.0 mph 98 % 0.00 in
04:55 71.8 °F 71.2 °F 29.90 in Calm   1.0 mph 98 % 0.00 in
05:00 71.8 °F 71.2 °F 29.90 in Calm   2.0 mph 98 % 0.00 in
05:05 71.6 °F 71.1 °F 29.90 in Calm   2.0 mph 98 % 0.00 in
05:10 71.6 °F 71.2 °F 29.90 in Calm   2.0 mph 99 % 0.00 in
05:15 71.4 °F 71.1 °F 29.90 in Calm   2.0 mph 99 % 0.00 in
05:20 71.6 °F 71.2 °F 29.90 in Calm   2.0 mph 99 % 0.00 in
05:25 71.6 °F 71.2 °F 29.90 in East 2.0 mph 2.0 mph 99 % 0.00 in
05:30 71.6 °F 71.2 °F 29.91 in Calm   2.0 mph 99 % 0.00 in
05:35 71.6 °F 71.2 °F 29.91 in SE 1.0 mph 3.0 mph 99 % 0.00 in
05:40 71.8 °F 71.4 °F 29.91 in Calm   3.0 mph 99 % 0.00 in
05:42 71.8 °F 71.4 °F 29.91 in Calm   3.0 mph 99 % 0.00 in
05:47 71.8 °F 71.4 °F 29.91 in Calm   3.0 mph 99 % 0.00 in
05:52 71.8 °F 71.4 °F 29.91 in Calm   3.0 mph 99 % 0.00 in
05:57 71.8 °F 71.4 °F 29.91 in Calm   1.0 mph 99 % 0.00 in
06:02 71.8 °F 71.4 °F 29.92 in Calm   1.0 mph 99 % 0.00 in
06:07 71.8 °F 71.4 °F 29.92 in Calm   1.0 mph 99 % 0.00 in
06:12 71.8 °F 71.4 °F 29.92 in Calm   1.0 mph 99 % 0.00 in
06:17 71.8 °F 71.4 °F 29.93 in Calm   1.0 mph 99 % 0.00 in
06:22 71.8 °F 71.4 °F 29.93 in Calm   1.0 mph 99 % 0.00 in
06:27 71.8 °F 71.4 °F 29.93 in Calm   1.0 mph 99 % 0.00 in
06:32 71.8 °F 71.4 °F 29.93 in Calm   1.0 mph 99 % 0.00 in
06:38 71.8 °F 71.4 °F 29.93 in Calm   1.0 mph 99 % 0.00 in
06:43 72.0 °F 71.6 °F 29.93 in Calm   1.0 mph 99 % 0.00 in
06:48 72.0 °F 71.6 °F 29.94 in Calm   1.0 mph 99 % 0.00 in
06:53 72.0 °F 71.6 °F 29.93 in Calm   1.0 mph 99 % 0.00 in
06:58 72.0 °F 71.6 °F 29.93 in Calm   1.0 mph 99 % 0.00 in
07:03 72.0 °F 71.6 °F 29.94 in Calm   1.0 mph 99 % 0.00 in
07:08 72.0 °F 71.6 °F 29.94 in Calm   1.0 mph 99 % 0.00 in
07:13 72.0 °F 71.6 °F 29.94 in Calm   1.0 mph 99 % 0.00 in
07:18 72.0 °F 71.6 °F 29.94 in Calm   1.0 mph 99 % 0.00 in
07:23 72.0 °F 71.6 °F 29.94 in ENE 1.0 mph 1.0 mph 99 % 0.00 in
07:28 72.0 °F 71.6 °F 29.94 in Calm   2.0 mph 99 % 0.00 in
07:33 72.0 °F 71.6 °F 29.94 in Calm   2.0 mph 99 % 0.00 in
07:38 72.0 °F 71.6 °F 29.94 in Calm   2.0 mph 99 % 0.00 in
07:43 72.0 °F 71.6 °F 29.94 in Calm   1.0 mph 99 % 0.00 in
07:48 72.0 °F 71.6 °F 29.94 in Calm   2.0 mph 99 % 0.00 in
07:53 72.0 °F 71.6 °F 29.94 in Calm   2.0 mph 99 % 0.00 in
07:58 72.0 °F 71.6 °F 29.94 in ESE 1.0 mph 2.0 mph 99 % 0.00 in
08:03 72.0 °F 71.6 °F 29.94 in Calm   2.0 mph 99 % 0.00 in
08:08 72.1 °F 71.8 °F 29.94 in Calm   1.0 mph 99 % 0.00 in
08:13 72.1 °F 72.1 °F 29.95 in East 1.0 mph 2.0 mph 100 % 0.00 in
08:18 72.3 °F 72.3 °F 29.94 in Calm   2.0 mph 100 % 0.00 in
08:23 72.7 °F 72.7 °F 29.94 in Calm   2.0 mph 100 % 0.00 in
08:28 73.0 °F 73.0 °F 29.95 in Calm   2.0 mph 100 % 0.00 in
08:33 73.2 °F 73.2 °F 29.95 in East 1.0 mph 2.0 mph 100 % 0.00 in
08:38 73.6 °F 73.6 °F 29.95 in North 1.0 mph 2.0 mph 100 % 0.00 in
08:43 74.1 °F 74.1 °F 29.95 in Calm   2.0 mph 100 % 0.00 in
08:48 74.7 °F 74.7 °F 29.95 in Calm   2.0 mph 100 % 0.00 in
08:53 75.4 °F 75.4 °F 29.95 in Calm   1.0 mph 100 % 0.00 in
08:58 75.9 °F 75.6 °F 29.96 in ENE 1.0 mph 1.0 mph 99 % 0.00 in
09:03 76.1 °F 75.6 °F 29.96 in SE 2.0 mph 3.0 mph 98 % 0.00 in
09:08 76.6 °F 75.7 °F 29.96 in Calm   3.0 mph 97 % 0.00 in
09:13 77.2 °F 75.9 °F 29.96 in Calm   3.0 mph 96 % 0.00 in
09:23 78.1 °F 75.9 °F 29.96 in Calm   3.0 mph 93 % 0.00 in
09:28 78.6 °F 75.7 °F 29.96 in East 2.0 mph 3.0 mph 91 % 0.00 in
09:33 79.0 °F 75.4 °F 29.96 in SE 3.0 mph 3.0 mph 89 % 0.00 in
09:38 79.3 °F 75.7 °F 29.97 in ESE 3.0 mph 5.0 mph 89 % 0.00 in
09:43 79.7 °F 75.7 °F 29.97 in East 3.0 mph 5.0 mph 88 % 0.00 in
09:48 80.2 °F 76.1 °F 29.96 in Calm   5.0 mph 87 % 0.00 in
09:53 80.8 °F 76.3 °F 29.96 in SE 1.0 mph 5.0 mph 86 % 0.00 in
09:58 81.0 °F 76.1 °F 29.96 in East 2.0 mph 5.0 mph 85 % 0.00 in
10:03 81.1 °F 76.3 °F 29.96 in ESE 4.0 mph 5.0 mph 85 % 0.00 in
10:08 81.3 °F 76.1 °F 29.96 in ESE 2.0 mph 6.0 mph 84 % 0.00 in
10:13 81.7 °F 76.3 °F 29.96 in ENE 5.0 mph 6.0 mph 84 % 0.00 in
10:19 82.0 °F 76.6 °F 29.96 in SE 5.0 mph 7.0 mph 84 % 0.00 in
10:24 82.0 °F 75.9 °F 29.96 in ESE 5.0 mph 7.0 mph 82 % 0.00 in
10:29 81.7 °F 75.9 °F 29.96 in SSE 2.0 mph 10.0 mph 83 % 0.00 in
10:34 81.9 °F 76.1 °F 29.96 in SE 4.0 mph 10.0 mph 83 % 0.00 in
10:39 82.0 °F 76.3 °F 29.96 in SSE 4.0 mph 10.0 mph 83 % 0.00 in
10:44 82.6 °F 76.8 °F 29.96 in East 8.0 mph 9.0 mph 83 % 0.00 in
10:49 82.6 °F 76.5 °F 29.95 in ESE 5.0 mph 11.0 mph 82 % 0.00 in
10:54 82.9 °F 76.1 °F 29.95 in ESE 5.0 mph 11.0 mph 80 % 0.00 in
10:59 82.9 °F 76.5 °F 29.95 in SSE 3.0 mph 11.0 mph 81 % 0.00 in
11:04 83.7 °F 76.5 °F 29.94 in East 7.0 mph 9.0 mph 79 % 0.00 in
11:10 83.7 °F 76.5 °F 29.94 in East 9.0 mph 10.0 mph 79 % 0.00 in
11:15 83.5 °F 76.6 °F 29.94 in SW 5.0 mph 10.0 mph 80 % 0.00 in
11:20 83.8 °F 77.0 °F 29.94 in SSE 7.0 mph 10.0 mph 80 % 0.00 in
11:25 84.7 °F 76.6 °F 29.94 in SSE 6.0 mph 11.0 mph 77 % 0.00 in
11:30 85.3 °F 76.5 °F 29.93 in SE 6.0 mph 11.0 mph 75 % 0.00 in
11:35 85.8 °F 76.6 °F 29.93 in SE 7.0 mph 13.0 mph 74 % 0.00 in
11:40 86.4 °F 75.9 °F 29.93 in SSE 7.0 mph 13.0 mph 71 % 0.00 in
11:45 86.2 °F 76.1 °F 29.93 in ESE 6.0 mph 13.0 mph 72 % 0.00 in
11:50 86.0 °F 75.9 °F 29.93 in SE 7.0 mph 12.0 mph 72 % 0.00 in
11:55 85.6 °F 75.9 °F 29.93 in SE 5.0 mph 13.0 mph 73 % 0.00 in
12:00 86.0 °F 75.9 °F 29.93 in SE 5.0 mph 13.0 mph 72 % 0.00 in
12:05 86.0 °F 76.3 °F 29.93 in SSE 5.0 mph 11.0 mph 73 % 0.00 in
12:10 86.4 °F 76.3 °F 29.93 in East 8.0 mph 11.0 mph 72 % 0.00 in
12:15 86.0 °F 75.9 °F 29.94 in SSE 5.0 mph 11.0 mph 72 % 0.00 in
12:20 86.0 °F 76.3 °F 29.94 in ESE 6.0 mph 10.0 mph 73 % 0.00 in
12:25 86.5 °F 76.5 °F 29.93 in ESE 9.0 mph 11.0 mph 72 % 0.00 in
12:30 86.5 °F 75.9 °F 29.93 in SSW 5.0 mph 11.0 mph 71 % 0.00 in
12:35 86.7 °F 75.7 °F 29.93 in SSE 4.0 mph 11.0 mph 70 % 0.00 in
12:40 87.4 °F 75.6 °F 29.92 in South 5.0 mph 11.0 mph 68 % 0.00 in
12:45 88.0 °F 76.1 °F 29.92 in South 6.0 mph 13.0 mph 68 % 0.00 in
12:50 88.7 °F 76.3 °F 29.92 in SSW 5.0 mph 13.0 mph 67 % 0.00 in
12:55 89.2 °F 75.9 °F 29.92 in SE 6.0 mph 13.0 mph 65 % 0.00 in
13:00 88.9 °F 76.1 °F 29.92 in SSE 6.0 mph 10.0 mph 66 % 0.00 in
13:05 88.2 °F 74.8 °F 29.92 in ESE 11.0 mph 11.0 mph 65 % 0.00 in
13:10 87.4 °F 75.6 °F 29.91 in SSE 7.0 mph 11.0 mph 68 % 0.00 in
13:15 87.3 °F 75.9 °F 29.91 in SE 5.0 mph 11.0 mph 69 % 0.00 in
13:20 86.9 °F 75.6 °F 29.91 in ESE 3.0 mph 11.0 mph 69 % 0.00 in
13:25 86.9 °F 75.6 °F 29.91 in ESE 6.0 mph 10.0 mph 69 % 0.00 in
13:30 86.5 °F 75.2 °F 29.91 in ESE 5.0 mph 10.0 mph 69 % 0.00 in
13:35 86.4 °F 75.4 °F 29.90 in SE 5.0 mph 10.0 mph 70 % 0.00 in
13:40 86.5 °F 75.2 °F 29.90 in SE 6.0 mph 10.0 mph 69 % 0.00 in
13:45 86.5 °F 75.6 °F 29.90 in SE 7.0 mph 10.0 mph 70 % 0.00 in
13:50 86.5 °F 75.6 °F 29.90 in SSE 3.0 mph 10.0 mph 70 % 0.00 in
13:55 86.4 °F 75.4 °F 29.90 in SE 5.0 mph 9.0 mph 70 % 0.00 in
14:00 86.4 °F 75.4 °F 29.89 in ESE 8.0 mph 9.0 mph 70 % 0.00 in
14:05 86.4 °F 75.9 °F 29.89 in ESE 5.0 mph 8.0 mph 71 % 0.00 in
14:10 86.2 °F 75.7 °F 29.89 in ESE 5.0 mph 8.0 mph 71 % 0.00 in
14:15 86.0 °F 75.6 °F 29.89 in East 5.0 mph 9.0 mph 71 % 0.00 in
14:20 85.8 °F 75.7 °F 29.90 in ESE 6.0 mph 10.0 mph 72 % 0.00 in
14:25 85.6 °F 75.6 °F 29.89 in SE 4.0 mph 10.0 mph 72 % 0.00 in
14:30 85.5 °F 76.3 °F 29.89 in East 5.0 mph 10.0 mph 74 % 0.00 in
14:35 85.1 °F 76.6 °F 29.88 in ESE 4.0 mph 10.0 mph 76 % 0.00 in
14:40 84.7 °F 76.3 °F 29.88 in SE 3.0 mph 9.0 mph 76 % 0.00 in
14:45 84.4 °F 76.8 °F 29.88 in SSE 2.0 mph 10.0 mph 78 % 0.00 in
14:50 83.8 °F 77.4 °F 29.88 in SSW 5.0 mph 10.0 mph 81 % 0.01 in
14:55 82.2 °F 75.0 °F 29.89 in SSW 6.0 mph 10.0 mph 79 % 0.01 in
15:00 80.4 °F 75.2 °F 29.89 in SSE 5.0 mph 10.0 mph 84 % 0.04 in
15:05 79.0 °F 73.4 °F 29.89 in Calm   10.0 mph 83 % 0.12 in
15:10 78.3 °F 74.5 °F 29.88 in NNW 1.0 mph 8.0 mph 88 % 0.14 in
15:15 77.5 °F 74.1 °F 29.88 in Calm   8.0 mph 89 % 0.15 in
15:20 77.5 °F 74.3 °F 29.88 in Calm   2.0 mph 90 % 0.15 in
15:25 77.7 °F 74.8 °F 29.88 in Calm   3.0 mph 91 % 0.15 in
15:30 77.9 °F 75.4 °F 29.88 in Calm   3.0 mph 92 % 0.15 in
15:35 78.1 °F 75.6 °F 29.88 in Calm   3.0 mph 92 % 0.15 in
15:40 78.3 °F 75.7 °F 29.87 in Calm   2.0 mph 92 % 0.15 in
15:45 79.0 °F 76.5 °F 29.87 in Calm   2.0 mph 92 % 0.15 in
15:51 79.3 °F 76.8 °F 29.87 in Calm   2.0 mph 92 % 0.14 in
15:56 80.1 °F 77.2 °F 29.87 in Calm   2.0 mph 91 % 0.14 in
16:01 81.1 °F 78.6 °F 29.87 in Calm   3.0 mph 92 % 0.11 in
16:06 82.2 °F 79.0 °F 29.87 in ENE 1.0 mph 3.0 mph 90 % 0.03 in
16:11 83.1 °F 79.2 °F 29.87 in East 1.0 mph 3.0 mph 88 % 0.01 in
16:16 83.8 °F 79.5 °F 29.87 in Calm   3.0 mph 87 % 0.00 in
16:21 84.6 °F 79.5 °F 29.87 in ENE 2.0 mph 3.0 mph 85 % 0.00 in
16:26 84.7 °F 79.3 °F 29.86 in South 2.0 mph 4.0 mph 84 % 0.00 in
16:31 84.7 °F 78.6 °F 29.86 in East 3.0 mph 5.0 mph 82 % 0.00 in
16:36 84.2 °F 77.7 °F 29.86 in East 1.0 mph 7.0 mph 81 % 0.00 in
16:41 83.8 °F 77.7 °F 29.87 in SE 5.0 mph 7.0 mph 82 % 0.00 in
16:46 83.7 °F 77.9 °F 29.87 in SE 2.0 mph 10.0 mph 83 % 0.00 in
16:51 83.3 °F 77.5 °F 29.87 in SSE 4.0 mph 10.0 mph 83 % 0.00 in
16:56 83.1 °F 77.7 °F 29.87 in SSE 2.0 mph 10.0 mph 84 % 0.00 in
17:01 82.9 °F 77.5 °F 29.87 in NE 1.0 mph 6.0 mph 84 % 0.00 in
17:06 82.8 °F 77.4 °F 29.87 in SE 3.0 mph 7.0 mph 84 % 0.00 in
17:11 82.8 °F 77.4 °F 29.87 in South 3.0 mph 7.0 mph 84 % 0.00 in
17:16 82.8 °F 77.4 °F 29.87 in NE 5.0 mph 7.0 mph 84 % 0.00 in
17:21 82.8 °F 77.4 °F 29.87 in SE 5.0 mph 8.0 mph 84 % 0.00 in
17:26 82.8 °F 77.4 °F 29.87 in ESE 2.0 mph 8.0 mph 84 % 0.00 in
17:31 82.8 °F 77.0 °F 29.87 in ESE 4.0 mph 9.0 mph 83 % 0.00 in
17:36 82.8 °F 77.0 °F 29.86 in South 2.0 mph 9.0 mph 83 % 0.00 in
17:41 82.8 °F 77.0 °F 29.87 in ESE 8.0 mph 9.0 mph 83 % 0.00 in
17:46 82.8 °F 76.6 °F 29.87 in South 2.0 mph 9.0 mph 82 % 0.00 in
17:51 82.8 °F 76.6 °F 29.87 in SE 4.0 mph 11.0 mph 82 % 0.00 in
17:56 82.6 °F 76.8 °F 29.87 in East 4.0 mph 11.0 mph 83 % 0.00 in
18:01 82.6 °F 76.8 °F 29.87 in SSE 4.0 mph 11.0 mph 83 % 0.00 in
18:06 82.6 °F 76.8 °F 29.87 in SE 3.0 mph 9.0 mph 83 % 0.00 in
18:11 82.6 °F 76.8 °F 29.87 in ESE 4.0 mph 9.0 mph 83 % 0.00 in
18:16 82.6 °F 76.8 °F 29.87 in East 5.0 mph 9.0 mph 83 % 0.00 in
18:21 82.2 °F 76.5 °F 29.87 in SE 3.0 mph 8.0 mph 83 % 0.00 in
18:26 82.0 °F 76.6 °F 29.87 in ESE 4.0 mph 8.0 mph 84 % 0.00 in
18:29 82.0 °F 76.6 °F 29.87 in SE 3.0 mph 8.0 mph 84 % 0.00 in
18:34 81.9 °F 76.1 °F 29.87 in NNE 3.0 mph 11.0 mph 83 % 0.00 in
18:39 81.9 °F 76.5 °F 29.88 in SE 2.0 mph 11.0 mph 84 % 0.00 in
18:44 81.7 °F 76.3 °F 29.88 in Calm   11.0 mph 84 % 0.00 in
18:49 81.5 °F 76.5 °F 29.88 in East 2.0 mph 10.0 mph 85 % 0.00 in
18:54 81.3 °F 76.5 °F 29.88 in ESE 3.0 mph 7.0 mph 85 % 0.00 in
18:59 81.3 °F 76.6 °F 29.88 in ESE 6.0 mph 7.0 mph 86 % 0.00 in
19:04 81.1 °F 76.8 °F 29.88 in SE 2.0 mph 8.0 mph 87 % 0.00 in
19:09 81.0 °F 76.6 °F 29.88 in SE 6.0 mph 8.0 mph 87 % 0.00 in
19:14 81.0 °F 76.6 °F 29.88 in SE 4.0 mph 8.0 mph 87 % 0.00 in
19:19 80.8 °F 76.5 °F 29.88 in East 3.0 mph 8.0 mph 87 % 0.00 in
19:24 80.6 °F 76.6 °F 29.88 in ESE 2.0 mph 8.0 mph 88 % 0.00 in
19:29 80.4 °F 76.5 °F 29.88 in South 3.0 mph 8.0 mph 88 % 0.00 in
19:34 80.2 °F 76.3 °F 29.89 in ESE 4.0 mph 8.0 mph 88 % 0.00 in
19:39 80.1 °F 76.5 °F 29.89 in SE 3.0 mph 8.0 mph 89 % 0.00 in
19:44 79.9 °F 76.3 °F 29.89 in SE 2.0 mph 8.0 mph 89 % 0.00 in
19:49 79.9 °F 76.3 °F 29.89 in SE 3.0 mph 8.0 mph 89 % 0.00 in
19:54 79.7 °F 76.1 °F 29.89 in ESE 4.0 mph 6.0 mph 89 % 0.00 in
20:00 79.5 °F 75.9 °F 29.89 in East 3.0 mph 9.0 mph 89 % 0.00 in
20:05 79.3 °F 76.1 °F 29.89 in SE 4.0 mph 9.0 mph 90 % 0.00 in
20:10 79.3 °F 76.1 °F 29.90 in SE 3.0 mph 9.0 mph 90 % 0.00 in
20:15 79.3 °F 75.7 °F 29.90 in SE 3.0 mph 5.0 mph 89 % 0.00 in
20:20 79.3 °F 75.6 °F 29.90 in ESE 3.0 mph 7.0 mph 88 % 0.00 in
20:25 79.3 °F 75.6 °F 29.91 in South 5.0 mph 8.0 mph 88 % 0.00 in
20:30 79.3 °F 75.2 °F 29.91 in SE 3.0 mph 8.0 mph 87 % 0.00 in
20:35 79.3 °F 75.2 °F 29.91 in SE 3.0 mph 8.0 mph 87 % 0.00 in
20:40 79.3 °F 75.2 °F 29.91 in SSE 4.0 mph 7.0 mph 87 % 0.00 in
20:45 79.3 °F 75.6 °F 29.91 in East 1.0 mph 7.0 mph 88 % 0.00 in
20:50 79.2 °F 75.4 °F 29.91 in SE 3.0 mph 8.0 mph 88 % 0.00 in
20:55 79.2 °F 75.4 °F 29.91 in South 5.0 mph 8.0 mph 88 % 0.00 in
21:00 79.2 °F 75.4 °F 29.91 in SE 5.0 mph 8.0 mph 88 % 0.00 in
21:05 79.3 °F 75.7 °F 29.91 in SE 3.0 mph 9.0 mph 89 % 0.00 in
21:10 79.2 °F 75.6 °F 29.91 in ESE 7.0 mph 9.0 mph 89 % 0.00 in
21:15 79.2 °F 75.6 °F 29.91 in SE 3.0 mph 9.0 mph 89 % 0.00 in
21:20 79.2 °F 75.6 °F 29.91 in ENE 4.0 mph 11.0 mph 89 % 0.00 in
21:25 79.2 °F 75.6 °F 29.91 in ESE 5.0 mph 11.0 mph 89 % 0.00 in
21:30 79.0 °F 75.4 °F 29.91 in SE 5.0 mph 11.0 mph 89 % 0.00 in
21:35 79.0 °F 75.7 °F 29.91 in ENE 6.0 mph 10.0 mph 90 % 0.00 in
21:40 79.0 °F 75.7 °F 29.91 in SSE 5.0 mph 10.0 mph 90 % 0.00 in
21:45 79.0 °F 75.7 °F 29.91 in SE 5.0 mph 10.0 mph 90 % 0.00 in
21:50 79.0 °F 75.7 °F 29.92 in SE 3.0 mph 10.0 mph 90 % 0.00 in
21:55 78.8 °F 75.6 °F 29.91 in SE 2.0 mph 10.0 mph 90 % 0.00 in
22:00 78.6 °F 75.4 °F 29.92 in SSE 5.0 mph 9.0 mph 90 % 0.00 in
22:05 78.6 °F 75.7 °F 29.92 in South 2.0 mph 7.0 mph 91 % 0.00 in
22:10 78.4 °F 75.6 °F 29.92 in ESE 4.0 mph 6.0 mph 91 % 0.00 in
22:16 78.3 °F 75.4 °F 29.92 in ESE 2.0 mph 6.0 mph 91 % 0.00 in
22:21 78.1 °F 75.6 °F 29.92 in ESE 5.0 mph 7.0 mph 92 % 0.00 in
22:24 78.1 °F 75.6 °F 29.92 in SE 2.0 mph 7.0 mph 92 % 0.00 in
22:25 78.1 °F 75.6 °F 29.92 in SE 2.0 mph 7.0 mph 92 % 0.00 in
22:29 78.1 °F 75.6 °F 29.91 in ESE 3.0 mph 7.0 mph 92 % 0.00 in
22:30 78.1 °F 75.6 °F 29.92 in ESE 3.0 mph 7.0 mph 92 % 0.00 in
22:35 77.9 °F 75.4 °F 29.91 in ESE 2.0 mph 7.0 mph 92 % 0.00 in
22:40 77.7 °F 75.2 °F 29.91 in East 4.0 mph 6.0 mph 92 % 0.00 in
22:45 77.7 °F 75.6 °F 29.91 in ESE 2.0 mph 6.0 mph 93 % 0.00 in
22:50 77.5 °F 75.4 °F 29.91 in ESE 3.0 mph 6.0 mph 93 % 0.00 in
22:55 77.5 °F 75.4 °F 29.91 in ESE 2.0 mph 7.0 mph 93 % 0.00 in
23:00 77.4 °F 75.2 °F 29.92 in SE 1.0 mph 7.0 mph 93 % 0.00 in
23:05 77.4 °F 75.6 °F 29.92 in East 3.0 mph 7.0 mph 94 % 0.00 in
23:10 77.4 °F 75.6 °F 29.92 in Calm   7.0 mph 94 % 0.00 in
23:15 77.4 °F 75.6 °F 29.93 in SE 1.0 mph 7.0 mph 94 % 0.00 in
23:20 77.2 °F 75.4 °F 29.93 in Calm   7.0 mph 94 % 0.00 in
23:25 77.2 °F 75.4 °F 29.93 in Calm   5.0 mph 94 % 0.00 in
23:30 77.2 °F 75.4 °F 29.94 in Calm   3.0 mph 94 % 0.00 in
23:35 77.2 °F 75.4 °F 29.94 in Calm   3.0 mph 94 % 0.00 in
23:40 77.2 °F 75.4 °F 29.93 in SE 1.0 mph 2.0 mph 94 % 0.00 in
23:45 77.2 °F 75.4 °F 29.94 in ESE 1.0 mph 3.0 mph 94 % 0.00 in
23:50 77.2 °F 75.4 °F 29.94 in Calm   3.0 mph 94 % 0.00 in
23:55 77.4 °F 75.6 °F 29.94 in Calm   3.0 mph 94 % 0.00 in
Spring, Texas: Villages of Bridgestone
Compliments of Weather Underground - 2.75 mb

Script developed by  Jim McMurry - jmcmurry@mwt.net Adapted for the template by  Wim van der Kuil - Leuven-Template.eu

You find our weather info also at:

UK Metoffice

WeatherCloud

Weather Underground

Mid-South Weather Network

AWEKAS

Citizen Weather Observer Program (CWOP)

HAMweather, WeatherForYou, PWS Weather

Equipment we use:

Weather-station
Davis Vantage Vue

Weather-program
Meteohub

Weather-server
Debian 7.9 x86 (Guest)

Provider
DreamHost

Davis Vantage Vue

Meteohub

Debian 7.9 x86 (Guest)

DreamHost